createdAt,value
2018-06-09T00:00:52.567Z,85.10
2018-06-09T00:01:52.537Z,87.10
2018-06-09T00:02:52.493Z,79.50
2018-06-09T00:03:52.455Z,83.10
2018-06-09T00:04:52.424Z,88.10
2018-06-09T00:05:52.377Z,81.20
2018-06-09T00:06:52.333Z,81.10
2018-06-09T00:07:52.297Z,91.40
2018-06-09T00:08:52.259Z,80.40
2018-06-09T00:09:52.215Z,87.80
2018-06-09T00:10:52.181Z,80.80
2018-06-09T00:11:52.139Z,84.30
2018-06-09T00:12:52.099Z,87.20
2018-06-09T00:13:52.058Z,91.40
2018-06-09T00:14:52.024Z,88.30
2018-06-09T00:15:51.979Z,83.50
2018-06-09T00:16:51.944Z,86.20
2018-06-09T00:17:51.901Z,84.70
2018-06-09T00:18:51.862Z,78.80
2018-06-09T00:19:51.824Z,86.60
2018-06-09T00:20:51.786Z,86.00
2018-06-09T00:21:51.744Z,84.60
2018-06-09T00:22:51.712Z,82.50
2018-06-09T00:23:51.666Z,85.10
2018-06-09T00:24:51.633Z,85.60
2018-06-09T00:25:51.597Z,83.20
2018-06-09T00:26:51.548Z,81.90
2018-06-09T00:27:51.513Z,82.60
2018-06-09T00:28:51.478Z,84.80
2018-06-09T00:29:51.435Z,78.90
2018-06-09T00:30:51.391Z,81.20
2018-06-09T00:31:51.353Z,84.10
2018-06-09T00:32:51.318Z,89.20
2018-06-09T00:33:51.280Z,85.60
2018-06-09T00:34:51.241Z,84.10
2018-06-09T00:35:51.211Z,78.60
2018-06-09T00:36:51.159Z,80.00
2018-06-09T00:37:51.118Z,84.80
2018-06-09T00:38:51.079Z,82.00
2018-06-09T00:39:51.039Z,81.20
2018-06-09T00:40:50.999Z,84.30
2018-06-09T00:41:50.959Z,79.90
2018-06-09T00:42:50.923Z,80.50
2018-06-09T00:43:50.879Z,85.20
2018-06-09T00:44:50.842Z,84.20
2018-06-09T00:45:50.807Z,87.10
2018-06-09T00:46:50.761Z,84.00
2018-06-09T00:47:50.723Z,87.80
2018-06-09T00:48:50.688Z,89.80
2018-06-09T00:49:50.644Z,87.40
2018-06-09T00:50:50.605Z,90.50
2018-06-09T00:51:50.568Z,87.00
2018-06-09T00:52:50.528Z,86.80
2018-06-09T00:53:50.491Z,84.80
2018-06-09T00:54:50.460Z,83.00
2018-06-09T00:55:50.413Z,77.50
2018-06-09T00:56:50.369Z,81.10
2018-06-09T00:57:50.330Z,77.50
2018-06-09T00:58:50.292Z,81.10
2018-06-09T00:59:50.253Z,85.50
2018-06-09T01:00:50.214Z,77.40
2018-06-09T01:01:50.173Z,82.10
2018-06-09T01:02:50.137Z,79.20
2018-06-09T01:03:50.095Z,82.10
2018-06-09T01:04:50.055Z,79.20
2018-06-09T01:05:50.015Z,78.00
2018-06-09T01:06:49.980Z,76.50
2018-06-09T01:07:49.936Z,80.70
2018-06-09T01:08:49.899Z,76.20
2018-06-09T01:09:49.865Z,78.10
2018-06-09T01:10:49.818Z,80.70
2018-06-09T01:11:49.779Z,80.80
2018-06-09T01:12:49.739Z,79.30
2018-06-09T01:13:49.699Z,79.50
2018-06-09T01:14:49.663Z,73.00
2018-06-09T01:15:49.620Z,74.20
2018-06-09T01:16:49.590Z,80.80
2018-06-09T01:17:49.542Z,76.60
2018-06-09T01:18:49.506Z,76.50
2018-06-09T01:19:49.462Z,78.10
2018-06-09T01:20:49.424Z,78.50
2018-06-09T01:21:49.383Z,75.40
2018-06-09T01:22:49.348Z,76.70
2018-06-09T01:23:49.303Z,73.00
2018-06-09T01:24:49.266Z,76.10
2018-06-09T01:25:49.226Z,70.70
2018-06-09T01:26:49.187Z,77.40
2018-06-09T01:27:49.151Z,75.90
2018-06-09T01:28:49.107Z,75.70
2018-06-09T01:29:49.073Z,76.90
2018-06-09T01:30:49.027Z,70.80
2018-06-09T01:31:48.988Z,74.70
2018-06-09T01:32:48.952Z,76.90
2018-06-09T01:33:48.908Z,72.50
2018-06-09T01:34:48.872Z,72.10
2018-06-09T01:35:48.836Z,72.30
2018-06-09T01:36:48.801Z,79.50
2018-06-09T01:37:48.750Z,74.50
2018-06-09T01:38:48.712Z,83.40
2018-06-09T01:39:48.670Z,81.40
2018-06-09T01:40:48.632Z,80.20
2018-06-09T01:41:48.591Z,81.60
2018-06-09T01:42:48.557Z,77.40
2018-06-09T01:43:48.510Z,81.50
2018-06-09T01:44:48.476Z,76.80
2018-06-09T01:45:48.430Z,81.30
2018-06-09T01:46:48.396Z,79.00
2018-06-09T01:47:48.354Z,78.90
2018-06-09T01:48:48.313Z,87.40
2018-06-09T01:49:48.274Z,81.50
2018-06-09T01:50:48.234Z,78.70
2018-06-09T01:51:48.193Z,82.20
2018-06-09T01:52:48.154Z,84.10
2018-06-09T01:53:48.113Z,80.80
2018-06-09T01:54:48.076Z,85.20
2018-06-09T01:55:48.049Z,81.30
2018-06-09T01:56:47.994Z,80.40
2018-06-09T01:57:47.960Z,80.20
2018-06-09T01:58:47.918Z,82.60
2018-06-09T01:59:47.880Z,81.60
2018-06-09T02:00:47.838Z,84.40
2018-06-09T02:01:47.796Z,81.40
2018-06-09T02:02:47.757Z,87.90
2018-06-09T02:03:47.720Z,84.20
2018-06-09T02:04:47.682Z,85.10
2018-06-09T02:05:47.638Z,81.50
2018-06-09T02:06:47.597Z,78.40
2018-06-09T02:07:47.559Z,83.50
2018-06-09T02:08:47.518Z,77.40
2018-06-09T02:09:47.483Z,81.30
2018-06-09T02:10:47.442Z,75.70
2018-06-09T02:11:47.416Z,81.20
2018-06-09T02:12:47.361Z,79.60
2018-06-09T02:13:47.320Z,77.10
2018-06-09T02:14:47.279Z,80.50
2018-06-09T02:15:47.242Z,80.70
2018-06-09T02:16:47.200Z,80.10
2018-06-09T02:17:47.159Z,83.80
2018-06-09T02:18:47.119Z,80.70
2018-06-09T02:19:47.079Z,80.60
2018-06-09T02:20:47.042Z,90.40
2018-06-09T02:21:47.002Z,86.90
2018-06-09T02:22:46.963Z,85.60
2018-06-09T02:23:46.919Z,84.80
2018-06-09T02:24:46.880Z,85.60
2018-06-09T02:25:46.840Z,87.80
2018-06-09T02:26:46.800Z,93.00
2018-06-09T02:27:46.760Z,93.70
2018-06-09T02:28:46.719Z,94.10
2018-06-09T02:29:46.680Z,90.20
2018-06-09T02:30:46.648Z,88.00
2018-06-09T02:31:46.600Z,89.70
2018-06-09T02:32:46.559Z,92.50
2018-06-09T02:33:46.523Z,89.20
2018-06-09T02:34:46.481Z,95.10
2018-06-09T02:35:46.441Z,89.10
2018-06-09T02:36:46.401Z,85.00
2018-06-09T02:37:46.371Z,91.50
2018-06-09T02:38:46.321Z,92.70
2018-06-09T02:39:46.282Z,95.10
2018-06-09T02:40:46.238Z,89.90
2018-06-09T02:41:46.203Z,89.60
2018-06-09T02:42:46.160Z,95.10
2018-06-09T02:43:46.120Z,97.70
2018-06-09T02:44:46.083Z,91.80
2018-06-09T02:45:46.039Z,94.40
2018-06-09T02:46:46.001Z,96.40
2018-06-09T02:47:45.958Z,89.30
2018-06-09T02:48:45.919Z,90.70
2018-06-09T02:49:45.880Z,93.40
2018-06-09T02:50:45.840Z,89.40
2018-06-09T02:51:45.798Z,89.30
2018-06-09T02:52:45.761Z,85.00
2018-06-09T02:53:45.721Z,84.00
2018-06-09T02:54:45.677Z,83.40
2018-06-09T02:55:45.636Z,82.70
2018-06-09T02:56:45.599Z,80.60
2018-06-09T02:57:45.557Z,84.60
2018-06-09T02:58:45.518Z,82.90
2018-06-09T02:59:45.479Z,83.90
2018-06-09T03:00:45.438Z,86.30
2018-06-09T03:01:45.401Z,75.70
2018-06-09T03:02:45.360Z,74.80
2018-06-09T03:03:45.319Z,77.90
2018-06-09T03:04:45.284Z,80.00
2018-06-09T03:05:45.236Z,76.80
2018-06-09T03:06:45.199Z,80.20
2018-06-09T03:07:45.158Z,77.60
2018-06-09T03:08:45.118Z,84.90
2018-06-09T03:09:45.076Z,80.90
2018-06-09T03:10:45.038Z,78.30
2018-06-09T03:11:44.997Z,73.80
2018-06-09T03:12:44.957Z,74.40
2018-06-09T03:13:44.925Z,76.60
2018-06-09T03:14:44.875Z,74.90
2018-06-09T03:15:44.837Z,81.60
2018-06-09T03:16:44.794Z,78.90
2018-06-09T03:17:44.754Z,76.90
2018-06-09T03:18:44.722Z,75.80
2018-06-09T03:19:44.673Z,74.40
2018-06-09T03:20:44.633Z,76.80
2018-06-09T03:21:44.595Z,81.30
2018-06-09T03:22:44.552Z,72.20
2018-06-09T03:23:44.517Z,71.60
2018-06-09T03:24:44.472Z,72.80
2018-06-09T03:25:44.449Z,79.30
2018-06-09T03:26:44.397Z,74.10
2018-06-09T03:27:44.352Z,77.90
2018-06-09T03:28:44.312Z,70.20
2018-06-09T03:29:44.289Z,71.90
2018-06-09T03:30:44.236Z,67.30
2018-06-09T03:31:44.190Z,72.00
2018-06-09T03:32:44.153Z,68.30
2018-06-09T03:33:44.117Z,70.60
2018-06-09T03:34:44.075Z,68.40
2018-06-09T03:35:44.029Z,67.70
2018-06-09T03:36:43.991Z,67.40
2018-06-09T03:37:43.958Z,68.30
2018-06-09T03:38:43.910Z,67.40
2018-06-09T03:39:43.869Z,67.70
2018-06-09T03:40:43.829Z,65.30
2018-06-09T03:41:43.789Z,61.90
2018-06-09T03:42:43.749Z,64.50
2018-06-09T03:43:43.707Z,65.50
2018-06-09T03:44:43.669Z,66.80
2018-06-09T03:45:43.628Z,65.30
2018-06-09T03:46:43.586Z,67.10
2018-06-09T03:47:43.548Z,67.60
2018-06-09T03:48:43.512Z,67.70
2018-06-09T03:49:43.466Z,67.10
2018-06-09T03:50:43.431Z,67.20
2018-06-09T03:51:43.390Z,67.00
2018-06-09T03:52:43.350Z,67.60
2018-06-09T03:53:43.310Z,62.70
2018-06-09T03:54:43.266Z,61.80
2018-06-09T03:55:43.225Z,64.40
2018-06-09T03:56:43.187Z,63.40
2018-06-09T03:57:43.146Z,65.20
2018-06-09T03:58:43.105Z,63.90
2018-06-09T03:59:43.062Z,61.80
2018-06-09T04:00:43.025Z,61.40
2018-06-09T04:01:42.986Z,60.20
2018-06-09T04:02:42.942Z,60.10
2018-06-09T04:03:42.905Z,59.90
2018-06-09T04:04:42.863Z,60.50
2018-06-09T04:05:42.822Z,61.70
2018-06-09T04:06:42.787Z,64.80
2018-06-09T04:07:42.741Z,58.80
2018-06-09T04:08:42.705Z,59.80
2018-06-09T04:09:42.664Z,56.50
2018-06-09T04:10:42.622Z,55.70
2018-06-09T04:11:42.582Z,53.80
2018-06-09T04:12:42.542Z,53.40
2018-06-09T04:13:42.499Z,51.40
2018-06-09T04:14:42.464Z,49.10
2018-06-09T04:15:42.421Z,48.40
2018-06-09T04:16:42.381Z,48.70
2018-06-09T04:17:42.340Z,48.50
2018-06-09T04:18:42.304Z,47.60
2018-06-09T04:19:42.258Z,46.00
2018-06-09T04:20:42.227Z,46.70
2018-06-09T04:21:42.180Z,45.30
2018-06-09T04:22:42.140Z,43.90
2018-06-09T04:23:42.100Z,45.30
2018-06-09T04:24:42.061Z,47.10
2018-06-09T04:25:42.017Z,45.70
2018-06-09T04:26:41.980Z,47.60
2018-06-09T04:27:41.939Z,45.50
2018-06-09T04:28:41.898Z,46.20
2018-06-09T04:29:41.868Z,43.10
2018-06-09T04:30:41.818Z,43.90
2018-06-09T04:31:41.780Z,44.00
2018-06-09T04:32:41.738Z,43.30
2018-06-09T04:33:41.703Z,43.30
2018-06-09T04:34:41.659Z,42.40
2018-06-09T04:35:41.617Z,39.20
2018-06-09T04:36:41.580Z,40.10
2018-06-09T04:37:41.548Z,38.80
2018-06-09T04:38:41.499Z,37.10
2018-06-09T04:39:41.458Z,36.90
2018-06-09T04:40:41.418Z,36.00
2018-06-09T04:41:41.379Z,38.40
2018-06-09T04:42:41.341Z,34.70
2018-06-09T04:43:41.298Z,33.80
2018-06-09T04:44:41.256Z,33.90
2018-06-09T04:45:41.218Z,34.10
2018-06-09T04:46:41.179Z,34.40
2018-06-09T04:47:41.143Z,32.80
2018-06-09T04:48:41.098Z,31.10
2018-06-09T04:49:41.060Z,31.70
2018-06-09T04:50:41.020Z,31.00
2018-06-09T04:51:40.978Z,32.90
2018-06-09T04:52:40.943Z,33.70
2018-06-09T04:53:40.898Z,33.10
2018-06-09T04:54:40.864Z,32.40
2018-06-09T04:55:40.819Z,31.80
2018-06-09T04:56:40.779Z,31.10
2018-06-09T04:57:40.747Z,30.90
2018-06-09T04:58:40.702Z,31.10
2018-06-09T04:59:40.660Z,30.80
2018-06-09T05:00:40.622Z,29.90
2018-06-09T05:01:40.579Z,29.40
2018-06-09T05:02:40.543Z,29.40
2018-06-09T05:03:40.498Z,29.90
2018-06-09T05:04:40.456Z,31.40
2018-06-09T05:05:40.418Z,32.00
2018-06-09T05:06:40.380Z,31.40
2018-06-09T05:07:40.341Z,30.80
2018-06-09T05:08:40.298Z,31.10
2018-06-09T05:09:40.262Z,28.70
2018-06-09T05:10:40.227Z,29.20
2018-06-09T05:11:40.177Z,26.60
2018-06-09T05:12:40.143Z,29.20
2018-06-09T05:13:40.109Z,25.30
2018-06-09T05:14:40.059Z,25.90
2018-06-09T05:15:40.021Z,26.50
2018-06-09T05:16:39.981Z,25.00
2018-06-09T05:17:39.939Z,24.70
2018-06-09T05:18:39.898Z,25.50
2018-06-09T05:19:39.858Z,25.20
2018-06-09T05:20:39.818Z,25.10
2018-06-09T05:21:39.782Z,23.20
2018-06-09T05:22:39.741Z,23.50
2018-06-09T05:23:39.703Z,26.80
2018-06-09T05:24:39.660Z,22.80
2018-06-09T05:25:39.620Z,22.40
2018-06-09T05:26:39.581Z,22.50
2018-06-09T05:27:39.541Z,22.80
2018-06-09T05:28:39.504Z,23.10
2018-06-09T05:29:39.462Z,23.70
2018-06-09T05:30:39.425Z,23.00
2018-06-09T05:31:39.380Z,22.60
2018-06-09T05:32:39.344Z,25.10
2018-06-09T05:33:39.302Z,21.20
2018-06-09T05:34:39.265Z,21.80
2018-06-09T05:35:39.225Z,21.10
2018-06-09T05:36:39.186Z,19.90
2018-06-09T05:37:39.146Z,20.00
2018-06-09T05:38:39.106Z,20.20
2018-06-09T05:39:39.064Z,19.50
2018-06-09T05:40:39.027Z,19.10
2018-06-09T05:41:38.988Z,19.10
2018-06-09T05:42:38.948Z,19.10
2018-06-09T05:43:38.907Z,19.30
2018-06-09T05:44:38.867Z,19.20
2018-06-09T05:45:38.830Z,20.60
2018-06-09T05:46:38.789Z,19.50
2018-06-09T05:47:38.752Z,20.10
2018-06-09T05:48:38.709Z,18.50
2018-06-09T05:49:38.671Z,20.10
2018-06-09T05:50:38.635Z,19.40
2018-06-09T05:51:38.590Z,19.40
2018-06-09T05:52:38.552Z,20.30
2018-06-09T05:53:38.515Z,18.60
2018-06-09T05:54:38.474Z,18.80
2018-06-09T05:55:38.473Z,18.60
2018-06-09T05:56:38.394Z,20.20
2018-06-09T05:57:38.356Z,18.70
2018-06-09T05:58:38.316Z,17.40
2018-06-09T05:59:38.282Z,19.20
2018-06-09T06:00:38.238Z,19.10
2018-06-09T06:01:38.199Z,19.40
2018-06-09T06:02:38.164Z,17.80
2018-06-09T06:03:38.120Z,18.00
2018-06-09T06:04:38.087Z,17.80
2018-06-09T06:05:38.043Z,17.70
2018-06-09T06:06:38.010Z,19.70
2018-06-09T06:07:37.966Z,18.60
2018-06-09T06:08:37.926Z,17.50
2018-06-09T06:09:37.890Z,18.00
2018-06-09T06:10:37.853Z,17.70
2018-06-09T06:11:37.813Z,17.50
2018-06-09T06:12:37.772Z,20.10
2018-06-09T06:13:37.729Z,16.80
2018-06-09T06:14:37.692Z,18.00
2018-06-09T06:15:37.650Z,17.70
2018-06-09T06:16:37.614Z,18.40
2018-06-09T06:17:37.579Z,16.50
2018-06-09T06:18:37.543Z,18.40
2018-06-09T06:19:37.495Z,18.80
2018-06-09T06:20:37.458Z,17.50
2018-06-09T06:21:37.420Z,19.20
2018-06-09T06:22:37.385Z,17.60
2018-06-09T06:23:37.344Z,16.90
2018-06-09T06:24:37.305Z,17.60
2018-06-09T06:25:37.266Z,19.20
2018-06-09T06:26:37.226Z,24.70
2018-06-09T06:27:37.185Z,18.90
2018-06-09T06:28:37.146Z,19.50
2018-06-09T06:29:37.111Z,38.50
2018-06-09T06:30:37.070Z,23.40
2018-06-09T06:31:37.030Z,27.60
2018-06-09T06:32:36.994Z,19.20
2018-06-09T06:33:36.955Z,18.30
2018-06-09T06:34:36.914Z,22.40
2018-06-09T06:35:36.881Z,27.70
2018-06-09T06:36:36.836Z,23.90
2018-06-09T06:37:36.807Z,27.20
2018-06-09T06:38:36.762Z,19.60
2018-06-09T06:39:36.722Z,17.30
2018-06-09T06:40:36.686Z,18.20
2018-06-09T06:41:36.650Z,17.60
2018-06-09T06:42:36.607Z,22.40
2018-06-09T06:43:36.569Z,17.40
2018-06-09T06:44:36.532Z,18.60
2018-06-09T06:45:36.493Z,17.80
2018-06-09T06:46:36.455Z,20.20
2018-06-09T06:47:36.418Z,17.60
2018-06-09T06:48:36.380Z,17.70
2018-06-09T06:49:36.340Z,19.50
2018-06-09T06:50:36.301Z,19.10
2018-06-09T06:51:36.262Z,17.40
2018-06-09T06:52:36.224Z,16.90
2018-06-09T06:53:36.188Z,19.40
2018-06-09T06:54:36.149Z,17.90
2018-06-09T06:55:36.117Z,18.30
2018-06-09T06:56:36.121Z,19.20
2018-06-09T06:57:36.040Z,17.60
2018-06-09T06:58:35.997Z,17.40
2018-06-09T06:59:35.960Z,16.70
2018-06-09T07:00:35.918Z,20.20
2018-06-09T07:01:35.881Z,16.90
2018-06-09T07:02:35.846Z,17.50
2018-06-09T07:03:35.805Z,17.70
2018-06-09T07:04:35.769Z,17.40
2018-06-09T07:05:35.728Z,18.40
2018-06-09T07:06:35.695Z,17.10
2018-06-09T07:07:35.653Z,16.80
2018-06-09T07:08:35.616Z,17.60
2018-06-09T07:09:35.578Z,18.20
2018-06-09T07:10:35.541Z,18.40
2018-06-09T07:11:35.500Z,18.10
2018-06-09T07:12:35.464Z,17.80
2018-06-09T07:13:35.436Z,18.60
2018-06-09T07:14:35.389Z,15.80
2018-06-09T07:15:35.349Z,18.80
2018-06-09T07:16:35.314Z,16.70
2018-06-09T07:17:35.272Z,17.30
2018-06-09T07:18:35.298Z,16.20
2018-06-09T07:19:35.196Z,16.80
2018-06-09T07:20:35.160Z,18.70
2018-06-09T07:21:35.123Z,16.50
2018-06-09T07:22:35.100Z,17.00
2018-06-09T07:23:35.055Z,16.20
2018-06-09T07:24:35.008Z,18.00
2018-06-09T07:25:34.976Z,18.40
2018-06-09T07:26:34.932Z,16.30
2018-06-09T07:27:34.896Z,15.80
2018-06-09T07:28:34.858Z,16.70
2018-06-09T07:29:34.822Z,17.90
2018-06-09T07:30:34.781Z,17.40
2018-06-09T07:31:34.757Z,18.90
2018-06-09T07:32:34.706Z,18.30
2018-06-09T07:33:34.668Z,16.90
2018-06-09T07:34:34.631Z,17.30
2018-06-09T07:35:34.595Z,16.50
2018-06-09T07:36:34.561Z,15.90
2018-06-09T07:37:34.517Z,16.70
2018-06-09T07:38:34.483Z,20.00
2018-06-09T07:39:34.441Z,18.90
2018-06-09T07:40:34.405Z,18.90
2018-06-09T07:41:34.368Z,17.20
2018-06-09T07:42:34.329Z,18.80
2018-06-09T07:43:34.294Z,17.40
2018-06-09T07:44:34.254Z,17.30
2018-06-09T07:45:34.217Z,17.20
2018-06-09T07:46:34.179Z,19.00
2018-06-09T07:47:34.142Z,19.00
2018-06-09T07:48:34.171Z,16.60
2018-06-09T07:49:34.147Z,15.40
2018-06-09T07:50:34.109Z,17.50
2018-06-09T07:51:34.073Z,18.70
2018-06-09T07:52:34.044Z,17.20
2018-06-09T07:53:33.946Z,17.70
2018-06-09T07:54:33.885Z,16.20
2018-06-09T07:55:33.844Z,17.00
2018-06-09T07:56:33.846Z,16.50
2018-06-09T07:57:33.852Z,16.50
2018-06-09T07:58:33.736Z,16.50
2018-06-09T07:59:33.702Z,17.30
2018-06-09T08:00:33.658Z,16.30
2018-06-09T08:01:33.666Z,16.80
2018-06-09T08:02:33.647Z,21.00
2018-06-09T08:03:33.551Z,17.00
2018-06-09T08:04:33.522Z,17.70
2018-06-09T08:05:33.480Z,16.80
2018-06-09T08:06:33.513Z,18.00
2018-06-09T08:07:33.404Z,17.30
2018-06-09T08:08:33.399Z,19.00
2018-06-09T08:09:33.378Z,19.80
2018-06-09T08:10:33.299Z,19.60
2018-06-09T08:11:33.255Z,18.70
2018-06-09T08:12:33.219Z,18.00
2018-06-09T08:13:33.214Z,16.80
2018-06-09T08:14:33.189Z,19.30
2018-06-09T08:15:33.174Z,18.00
2018-06-09T08:16:33.207Z,18.00
2018-06-09T08:17:33.344Z,19.30
2018-06-09T08:18:33.000Z,19.60
2018-06-09T08:19:33.053Z,20.20
2018-06-09T08:20:32.926Z,17.80
2018-06-09T08:21:32.891Z,19.00
2018-06-09T08:22:32.858Z,17.10
2018-06-09T08:23:32.815Z,17.90
2018-06-09T08:24:32.780Z,18.80
2018-06-09T08:25:32.750Z,17.00
2018-06-09T08:26:32.712Z,20.80
2018-06-09T08:27:32.675Z,20.30
2018-06-09T08:28:32.636Z,17.20
2018-06-09T08:29:32.600Z,17.40
2018-06-09T08:30:32.566Z,17.40
2018-06-09T08:31:32.529Z,16.60
2018-06-09T08:32:32.500Z,16.90
2018-06-09T08:33:32.453Z,17.90
2018-06-09T08:34:32.418Z,19.60
2018-06-09T08:35:32.381Z,18.40
2018-06-09T08:36:32.356Z,19.40
2018-06-09T08:37:32.320Z,17.60
2018-06-09T08:38:32.273Z,17.70
2018-06-09T08:39:32.237Z,16.80
2018-06-09T08:40:32.201Z,18.70
2018-06-09T08:41:32.164Z,17.30
2018-06-09T08:42:32.129Z,18.60
2018-06-09T08:43:32.092Z,19.60
2018-06-09T08:44:32.053Z,17.40
2018-06-09T08:45:32.017Z,17.30
2018-06-09T08:46:31.981Z,18.00
2018-06-09T08:47:31.943Z,17.70
2018-06-09T08:48:31.912Z,18.50
2018-06-09T08:49:31.870Z,18.50
2018-06-09T08:50:31.837Z,19.00
2018-06-09T08:51:31.800Z,17.90
2018-06-09T08:52:31.762Z,18.20
2018-06-09T08:53:31.728Z,17.20
2018-06-09T08:54:31.718Z,17.90
2018-06-09T08:55:31.651Z,18.50
2018-06-09T08:56:31.616Z,17.80
2018-06-09T08:57:31.579Z,20.50
2018-06-09T08:58:31.546Z,24.20
2018-06-09T08:59:31.509Z,19.40
2018-06-09T09:00:31.470Z,19.50
2018-06-09T09:01:31.436Z,18.40
2018-06-09T09:02:31.398Z,21.60
2018-06-09T09:03:31.360Z,25.60
2018-06-09T09:04:31.324Z,18.10
2018-06-09T09:05:31.290Z,21.80
2018-06-09T09:06:31.250Z,21.70
2018-06-09T09:07:31.213Z,27.10
2018-06-09T09:08:31.177Z,22.40
2018-06-09T09:09:31.200Z,24.80
2018-06-09T09:10:31.105Z,23.20
2018-06-09T09:11:31.070Z,20.80
2018-06-09T09:12:31.033Z,20.20
2018-06-09T09:13:30.994Z,18.90
2018-06-09T09:14:30.962Z,19.10
2018-06-09T09:15:30.930Z,20.70
2018-06-09T09:16:30.940Z,20.80
2018-06-09T09:17:30.855Z,18.60
2018-06-09T09:18:30.817Z,22.90
2018-06-09T09:19:30.788Z,21.20
2018-06-09T09:20:30.746Z,19.30
2018-06-09T09:21:30.711Z,21.50
2018-06-09T09:22:30.669Z,16.10
2018-06-09T09:23:30.634Z,19.40
2018-06-09T09:24:30.596Z,19.10
2018-06-09T09:25:30.563Z,19.80
2018-06-09T09:26:30.523Z,22.20
2018-06-09T09:27:30.487Z,19.50
2018-06-09T09:28:30.452Z,18.10
2018-06-09T09:29:30.415Z,19.10
2018-06-09T09:30:30.385Z,17.20
2018-06-09T09:31:30.343Z,18.40
2018-06-09T09:32:30.307Z,21.90
2018-06-09T09:33:30.270Z,17.80
2018-06-09T09:34:30.243Z,17.20
2018-06-09T09:35:30.204Z,19.10
2018-06-09T09:36:30.214Z,18.30
2018-06-09T09:37:30.128Z,17.80
2018-06-09T09:38:30.089Z,17.60
2018-06-09T09:39:30.054Z,19.60
2018-06-09T09:40:30.020Z,18.10
2018-06-09T09:41:29.984Z,19.20
2018-06-09T09:42:29.946Z,17.30
2018-06-09T09:43:29.914Z,18.70
2018-06-09T09:44:29.874Z,17.10
2018-06-09T09:45:29.837Z,18.00
2018-06-09T09:46:29.807Z,17.60
2018-06-09T09:47:29.764Z,17.30
2018-06-09T09:48:29.730Z,18.00
2018-06-09T09:49:29.693Z,17.10
2018-06-09T09:50:29.658Z,17.40
2018-06-09T09:51:29.622Z,17.50
2018-06-09T09:52:29.591Z,17.30
2018-06-09T09:53:29.548Z,17.60
2018-06-09T09:54:29.512Z,18.60
2018-06-09T09:55:29.478Z,17.20
2018-06-09T09:56:29.439Z,18.60
2018-06-09T09:57:29.407Z,16.80
2018-06-09T09:58:29.366Z,17.70
2018-06-09T09:59:29.333Z,21.30
2018-06-09T10:00:29.295Z,17.70
2018-06-09T10:01:29.262Z,17.90
2018-06-09T10:02:29.223Z,17.30
2018-06-09T10:03:29.185Z,16.50
2018-06-09T10:04:29.151Z,16.70
2018-06-09T10:05:29.116Z,16.50
2018-06-09T10:06:29.080Z,16.80
2018-06-09T10:07:29.050Z,15.60
2018-06-09T10:08:29.006Z,17.50
2018-06-09T10:09:28.973Z,17.60
2018-06-09T10:10:28.938Z,15.40
2018-06-09T10:11:28.900Z,16.80
2018-06-09T10:12:28.864Z,14.30
2018-06-09T10:13:28.828Z,16.50
2018-06-09T10:14:28.805Z,16.00
2018-06-09T10:15:28.783Z,15.80
2018-06-09T10:16:28.723Z,17.20
2018-06-09T10:17:28.689Z,15.50
2018-06-09T10:18:28.653Z,15.40
2018-06-09T10:19:28.617Z,19.40
2018-06-09T10:20:28.581Z,14.10
2018-06-09T10:21:28.551Z,18.20
2018-06-09T10:22:28.514Z,15.30
2018-06-09T10:23:28.482Z,16.90
2018-06-09T10:24:28.443Z,18.00
2018-06-09T10:25:28.404Z,15.20
2018-06-09T10:26:28.375Z,14.10
2018-06-09T10:27:28.333Z,19.00
2018-06-09T10:28:28.301Z,15.90
2018-06-09T10:29:28.263Z,15.70
2018-06-09T10:30:28.242Z,17.00
2018-06-09T10:31:28.193Z,16.10
2018-06-09T10:32:28.162Z,16.40
2018-06-09T10:33:28.125Z,17.80
2018-06-09T10:34:28.088Z,16.40
2018-06-09T10:35:28.052Z,16.20
2018-06-09T10:36:28.017Z,15.50
2018-06-09T10:37:27.982Z,19.50
2018-06-09T10:38:29.852Z,18.10
2018-06-09T10:39:27.912Z,16.40
2018-06-09T10:40:27.877Z,16.20
2018-06-09T10:41:27.842Z,16.60
2018-06-09T10:42:27.808Z,16.60
2018-06-09T10:43:27.771Z,17.80
2018-06-09T10:44:27.739Z,18.20
2018-06-09T10:45:27.703Z,17.10
2018-06-09T10:46:27.672Z,17.90
2018-06-09T10:47:27.636Z,17.10
2018-06-09T10:48:27.602Z,16.90
2018-06-09T10:49:27.565Z,17.70
2018-06-09T10:50:27.532Z,16.30
2018-06-09T10:51:27.494Z,16.70
2018-06-09T10:52:27.468Z,17.30
2018-06-09T10:53:27.428Z,18.30
2018-06-09T10:54:27.392Z,18.40
2018-06-09T10:55:27.358Z,17.70
2018-06-09T10:56:27.324Z,17.40
2018-06-09T10:57:27.297Z,16.60
2018-06-09T10:58:27.254Z,16.40
2018-06-09T10:59:27.220Z,15.90
2018-06-09T11:00:27.186Z,16.70
2018-06-09T11:01:27.153Z,17.80
2018-06-09T11:02:27.118Z,17.30
2018-06-09T11:03:27.082Z,17.40
2018-06-09T11:04:27.049Z,18.10
2018-06-09T11:05:27.015Z,17.20
2018-06-09T11:06:26.988Z,16.90
2018-06-09T11:07:26.946Z,15.30
2018-06-09T11:08:26.911Z,17.40
2018-06-09T11:09:26.880Z,15.70
2018-06-09T11:10:26.845Z,14.00
2018-06-09T11:11:26.812Z,17.30
2018-06-09T11:12:26.777Z,15.10
2018-06-09T11:13:26.746Z,16.00
2018-06-09T11:14:26.711Z,17.00
2018-06-09T11:15:26.677Z,17.70
2018-06-09T11:16:26.643Z,18.40
2018-06-09T11:17:26.614Z,19.00
2018-06-09T11:18:26.576Z,17.60
2018-06-09T11:19:26.542Z,16.20
2018-06-09T11:20:26.512Z,17.30
2018-06-09T11:21:26.480Z,17.40
2018-06-09T11:22:26.452Z,17.00
2018-06-09T11:23:26.415Z,17.70
2018-06-09T11:24:26.385Z,19.20
2018-06-09T11:25:26.348Z,19.70
2018-06-09T11:26:26.315Z,17.50
2018-06-09T11:27:26.282Z,19.40
2018-06-09T11:28:26.249Z,18.10
2018-06-09T11:29:26.216Z,16.80
2018-06-09T11:30:26.179Z,15.70
2018-06-09T11:31:26.148Z,17.80
2018-06-09T11:32:26.117Z,16.20
2018-06-09T11:33:26.083Z,18.10
2018-06-09T11:34:26.046Z,15.30
2018-06-09T11:35:26.013Z,17.20
2018-06-09T11:36:25.980Z,14.70
2018-06-09T11:37:25.965Z,14.40
2018-06-09T11:38:25.917Z,13.40
2018-06-09T11:39:30.188Z,17.60
2018-06-09T11:40:25.851Z,15.40
2018-06-09T11:41:25.819Z,13.90
2018-06-09T11:42:25.793Z,17.10
2018-06-09T11:43:25.753Z,17.50
2018-06-09T11:44:25.720Z,18.40
2018-06-09T11:45:25.689Z,17.00
2018-06-09T11:46:25.660Z,19.00
2018-06-09T11:47:25.623Z,18.60
2018-06-09T11:48:25.591Z,17.10
2018-06-09T11:49:25.596Z,15.20
2018-06-09T11:50:25.529Z,15.70
2018-06-09T11:51:25.498Z,13.80
2018-06-09T11:52:25.465Z,14.30
2018-06-09T11:53:25.431Z,15.20
2018-06-09T11:54:25.398Z,16.30
2018-06-09T11:55:25.364Z,15.20
2018-06-09T11:56:25.335Z,15.50
2018-06-09T11:57:25.301Z,16.70
2018-06-09T11:58:25.269Z,16.90
2018-06-09T11:59:25.236Z,17.10
2018-06-09T12:00:25.206Z,17.30
2018-06-09T12:01:25.175Z,16.90
2018-06-09T12:02:25.141Z,17.10
2018-06-09T12:03:25.109Z,15.80
2018-06-09T12:04:25.081Z,14.20
2018-06-09T12:05:25.047Z,13.80
2018-06-09T12:06:25.018Z,17.20
2018-06-09T12:07:24.983Z,15.60
2018-06-09T12:08:24.963Z,14.70
2018-06-09T12:09:24.921Z,15.70
2018-06-09T12:10:24.892Z,13.90
2018-06-09T12:11:24.861Z,17.20
2018-06-09T12:12:24.831Z,13.60
2018-06-09T12:13:24.797Z,14.50
2018-06-09T12:14:24.766Z,15.70
2018-06-09T12:15:24.742Z,13.90
2018-06-09T12:16:24.707Z,14.90
2018-06-09T12:17:24.682Z,15.10
2018-06-09T12:18:24.646Z,15.40
2018-06-09T12:19:24.613Z,15.50
2018-06-09T12:20:24.584Z,16.60
2018-06-09T12:21:24.553Z,16.00
2018-06-09T12:22:24.523Z,14.10
2018-06-09T12:23:24.493Z,15.00
2018-06-09T12:24:24.462Z,16.90
2018-06-09T12:25:24.433Z,16.80
2018-06-09T12:26:24.416Z,15.80
2018-06-09T12:27:24.374Z,15.60
2018-06-09T12:29:24.320Z,16.10
2018-06-09T12:30:24.286Z,15.10
2018-06-09T12:31:24.254Z,16.60
2018-06-09T12:32:24.230Z,15.70
2018-06-09T12:33:24.199Z,16.30
2018-06-09T12:34:24.175Z,15.70
2018-06-09T12:35:24.362Z,15.90
2018-06-09T12:36:24.109Z,16.90
2018-06-09T12:37:24.089Z,16.00
2018-06-09T12:38:24.052Z,15.30
2018-06-09T12:39:24.066Z,16.40
2018-06-09T12:40:23.993Z,16.80
2018-06-09T12:41:23.965Z,16.30
2018-06-09T12:42:23.936Z,16.30
2018-06-09T12:43:23.909Z,15.80
2018-06-09T12:44:23.880Z,16.10
2018-06-09T12:45:23.852Z,17.10
2018-06-09T12:46:23.822Z,15.50
2018-06-09T12:47:23.796Z,18.50
2018-06-09T12:48:23.765Z,14.50
2018-06-09T12:49:23.744Z,16.50
2018-06-09T12:50:23.712Z,15.40
2018-06-09T12:51:23.684Z,16.30
2018-06-09T12:52:23.652Z,17.20
2018-06-09T12:53:23.627Z,16.20